• Join FlightAware (Why Join?)
  • Login
  • US Flag 
03:23PM EDT


 

Airport Tracker/Info


-or-


 

Live Flight TrackerFlight Track Log ✈ SWA738 ✈ 08-May-2013 ✈ KBWI - KMHT

Flight Track Log - Related Links

Times and Time Zones

All times are in EDT time to prevent confusion due to time zone crossing. See the SWA738 flight status page for this flight to view local times or setup timezone preferences in your user account.

Time Position Orientation Groundspeed Altitude Reporting Facility
EDT Latitude Longitude Course Direction KTS MPH feet Rate Location/Type
07:30PM 39.1833 -76.7000 218° Southwest 158 182 1,600  Level Potomac TRACON
07:31PM 39.1500 -76.7333 218° Southwest 208 239 3,300 2,280 Climbing Potomac TRACON
07:33PM 39.1411 -76.5256 93° East 241 277 9,400 2,460 Climbing Washington Center
07:34PM 39.1439 -76.4133 88° East 271 312 12,000 2,700 Climbing Washington Center
07:35PM 39.1447 -76.2900 89° East 314 361 14,800 2,580 Climbing Washington Center
07:36PM 39.1600 -76.1564 82° East 351 404 17,300 2,280 Climbing Washington Center
07:37PM 39.1753 -76.0172 82° East 376 433 19,400 1,980 Climbing Washington Center
07:38PM 39.2153 -75.8861 68° East 383 441 21,400 2,100 Climbing Washington Center
07:39PM 39.2967 -75.7739 47° Northeast 391 450 23,700 1,800 Climbing Washington Center
07:40PM 39.3803 -75.6586 47° Northeast 415 478 25,000 600 Climbing Washington Center
07:41PM 39.4656 -75.5431 46° Northeast 430 495 25,000  Level Washington Center
07:42PM 39.5489 -75.4275 47° Northeast 436 502 25,100 960 Climbing Washington Center
07:43PM 39.6342 -75.3086 47° Northeast 441 507 27,000 1,860 Climbing Washington Center
07:44PM 39.7425 -75.1525 48° Northeast 474 545 29,100 1,440 Climbing New York Center
07:45PM 39.8150 -75.0492 48° Northeast 469 540 30,300 1,620 Climbing New York Center
07:46PM 39.9203 -74.9011 47° Northeast 469 540 32,400 1,860 Climbing New York Center
07:47PM 40.0036 -74.7869 46° Northeast 469 540 34,000 1,680 Climbing New York Center
07:48PM 40.0911 -74.6617 48° Northeast 474 545 35,900 1,440 Climbing New York Center
07:49PM 40.1742 -74.5386 49° Northeast 464 534 36,900 540 Climbing New York Center
07:50PM 40.3036 -74.4669 23° Northeast 439 505 37,000  Climbing New York Center
07:53PM 40.6017 -74.3889 11° North 460 529 37,000  Level Boston Center
07:54PM 40.7439 -74.3578 North 460 529 37,000  Level Boston Center
07:55PM 40.8822 -74.3206 11° North 460 529 37,000  Level Boston Center
07:56PM 41.0119 -74.2858 11° North 465 535 37,000  Level Boston Center
07:57PM 41.1375 -74.2508 12° North 465 535 37,000  Level Boston Center
07:58PM 41.2569 -74.2128 13° North 471 542 37,000  Level Boston Center
07:59PM 41.3844 -74.1803 11° North 471 542 37,000  Level Boston Center
08:00PM 41.5142 -74.1450 12° North 471 542 37,000 -540 Level Boston Center
08:01PM 41.6567 -74.1072 11° North 471 542 36,000 -960 Descending Boston Center
08:02PM 41.7864 -74.0717 12° North 471 542 35,100 -960 Descending Boston Center
08:03PM 41.9161 -74.0386 11° North 471 542 34,100 -1,020 Descending Boston Center
08:04PM 42.0294 -73.9717 24° Northeast 453 521 33,100 -1,080 Descending Boston Center
08:05PM 42.0894 -73.8417 58° Northeast 403 464 32,000 -1,080 Descending Boston Center
08:06PM 42.1514 -73.7142 57° Northeast 398 458 31,000 -1,020 Descending Boston Center
08:07PM 42.2133 -73.5781 58° Northeast 410 472 30,000 -1,020 Descending Boston Center
08:08PM 42.2731 -73.4503 58° Northeast 405 466 29,000 -1,020 Descending Boston Center
08:09PM 42.3303 -73.3303 57° Northeast 398 458 28,000 -1,020 Descending Boston Center
08:10PM 42.3875 -73.1961 60° Northeast 398 458 27,000 -1,020 Descending Boston Center
08:11PM 42.4425 -73.0703 59° Northeast 398 458 26,000 -1,500 Descending Boston Center
08:12PM 42.5014 -72.9525 56° Northeast 392 451 24,100 -1,860 Descending Boston Center
08:13PM 42.5519 -72.8347 60° Northeast 375 432 22,300 -2,220 Descending Boston Center
08:14PM 42.5919 -72.7022 68° East 370 426 19,700 -2,100 Descending Boston Center
08:15PM 42.6086 -72.5925 78° East 345 397 18,200 -1,620 Descending Boston Center
08:16PM 42.6275 -72.4656 79° East 340 391 16,500 -1,680 Descending Boston Center
08:17PM 42.6339 -72.3414 86° East 329 379 14,900 -1,680 Descending Boston Center
08:18PM 42.6397 -72.2031 87° East 329 379 13,200 -1,500 Descending Boston Center
08:19PM 42.6458 -72.1211 84° East 324 373 12,000 -1,500 Descending Boston Center
08:20PM 42.6558 -71.9686 85° East 318 366 10,200 -1,320 Descending Boston Center
08:21PM 42.6636 -71.8725 84° East 298 343 9,400 -720 Descending Boston Center
08:22PM 42.7006 -71.7789 62° Northeast 251 289 8,800 -780 Descending Boston Center
08:23PM 42.7633 -71.7811 359° North 230 265 7,900 -1,200 Descending Boston Center
08:24PM 42.8631 -71.7489 13° North 273 314 6,500 -1,320 Descending Boston Center
08:25PM 42.9294 -71.7142 21° North 282 325 5,300 -1,200 Descending Boston Center
08:26PM 43.0106 -71.6736 20° North 282 325 4,100 -600 Descending Boston Center
08:27PM 43.0750 -71.6442 18° North 282 325 4,100 -720 Level Boston Center
08:28PM 43.1139 -71.5583 58° Northeast 244 281 2,600 -720 Descending Boston Center
08:29PM 43.0636 -71.5136 147° Southeast 132 152 2,600 -300 Level Boston Center
08:30PM 43.0281 -71.4914 155° Southeast 138 159 2,100 -600 Descending Boston Center
08:31PM 42.9903 -71.4694 157° South 140 161 1,400 -780 Descending Boston Center
08:32PM 42.9506 -71.4472 158° South 129 148 500 -900 Descending Boston Center
08:34PM 42.9328 -71.4358 316° Northwest  Level Estimated
08:41PM 42.9328 -71.4358 316° Northwest  Level Estimated